Time;durP1;ratioP1;P1;durP2;ratioP2;P2;SDS_P1;SDS_P2;PMS_P1;PMS_P2;Temp;Humidity;BMP_temperature;BMP_pressure;BME280_temperature;BME280_humidity;BME280_pressure;Samples;Min_cycle;Max_cycle;Signal;HPM_P1;HPM_P2
2021/03/12 00:01:59;;;;;;;3.05;1.00;;;21.50;49.40;;;;;;5271692;28;20024;-72
2021/03/12 00:04:30;;;;;;;3.78;1.40;;;21.40;49.20;;;;;;5279661;28;20102;-71
2021/03/12 00:07:01;;;;;;;4.18;1.25;;;21.40;48.70;;;;;;5272962;28;20030;-72
2021/03/12 00:09:31;;;;;;;2.45;1.10;;;21.40;48.40;;;;;;5272453;28;20111;-71
2021/03/12 00:12:02;;;;;;;4.25;1.05;;;21.40;48.30;;;;;;5290752;28;20051;-72
2021/03/12 00:14:32;;;;;;;5.45;1.30;;;21.40;48.20;;;;;;5281373;28;20019;-73
2021/03/12 00:17:03;;;;;;;4.38;0.93;;;21.30;48.50;;;;;;5283434;28;20036;-73
2021/03/12 00:19:33;;;;;;;4.68;1.10;;;21.30;48.30;;;;;;5283292;28;20532;-72
2021/03/12 00:22:04;;;;;;;3.20;1.05;;;21.30;48.80;;;;;;5272646;28;20028;-71
2021/03/12 00:24:34;;;;;;;4.38;1.02;;;21.30;48.90;;;;;;5283621;28;20051;-71
2021/03/12 00:27:05;;;;;;;3.00;0.90;;;21.30;48.90;;;;;;5268156;28;20020;-72
2021/03/12 00:29:35;;;;;;;5.85;1.00;;;21.30;48.70;;;;;;5252670;28;20016;-72
2021/03/12 00:32:06;;;;;;;3.25;1.10;;;21.30;48.80;;;;;;5268760;28;20465;-72
2021/03/12 00:34:36;;;;;;;3.42;1.00;;;21.30;48.80;;;;;;5275726;28;20028;-71
2021/03/12 00:37:07;;;;;;;2.97;0.85;;;21.30;48.90;;;;;;5255447;28;20054;-72
2021/03/12 00:39:37;;;;;;;3.03;0.98;;;21.30;48.80;;;;;;5289292;28;20110;-72
2021/03/12 00:42:08;;;;;;;3.67;1.17;;;21.30;48.90;;;;;;5288838;28;20126;-71
2021/03/12 00:44:39;;;;;;;3.13;0.98;;;21.30;48.90;;;;;;5250595;28;20557;-72
2021/03/12 00:47:09;;;;;;;2.38;0.98;;;21.30;48.90;;;;;;5250683;28;20111;-72
2021/03/12 00:49:40;;;;;;;2.25;0.90;;;21.30;48.80;;;;;;5259526;28;20027;-72
2021/03/12 00:52:10;;;;;;;3.97;1.30;;;21.30;48.90;;;;;;5270055;28;20039;-72
2021/03/12 00:54:41;;;;;;;2.97;1.00;;;21.30;48.90;;;;;;5288449;28;20035;-72
2021/03/12 00:57:11;;;;;;;5.68;1.02;;;21.30;48.90;;;;;;5288813;28;20063;-72
2021/03/12 00:59:42;;;;;;;3.15;0.80;;;21.30;48.80;;;;;;5245612;28;20027;-73
2021/03/12 01:02:12;;;;;;;2.38;0.90;;;21.30;48.60;;;;;;5266905;28;20109;-71
2021/03/12 01:04:43;;;;;;;3.65;1.15;;;21.20;48.70;;;;;;5250813;28;20118;-72
2021/03/12 01:07:14;;;;;;;2.17;0.82;;;21.20;48.70;;;;;;5270695;28;20020;-72
2021/03/12 01:09:44;;;;;;;3.83;1.10;;;21.20;48.50;;;;;;5270468;28;20023;-71
2021/03/12 01:12:15;;;;;;;2.10;0.77;;;21.20;48.50;;;;;;5271622;28;20393;-72
2021/03/12 01:14:46;;;;;;;4.47;0.90;;;21.20;48.40;;;;;;5284115;28;20032;-73
2021/03/12 01:17:16;;;;;;;6.72;0.80;;;21.20;48.50;;;;;;5285963;28;20044;-73
2021/03/12 01:19:47;;;;;;;4.10;0.77;;;21.20;48.50;;;;;;5252572;28;20172;-72
2021/03/12 01:22:17;;;;;;;1.80;0.82;;;21.30;48.30;;;;;;5267877;28;20036;-72
2021/03/12 01:24:48;;;;;;;4.68;1.02;;;21.30;48.20;;;;;;5260260;28;20454;-72
2021/03/12 01:27:18;;;;;;;3.45;0.80;;;21.30;48.20;;;;;;5279024;28;20027;-72
2021/03/12 01:29:49;;;;;;;3.13;0.90;;;21.30;48.00;;;;;;5267122;28;20505;-72
2021/03/12 01:32:19;;;;;;;2.80;0.85;;;21.30;47.90;;;;;;5274893;28;20084;-71
2021/03/12 01:34:50;;;;;;;3.30;0.80;;;21.20;47.80;;;;;;5282226;28;20032;-72
2021/03/12 01:37:20;;;;;;;2.97;0.93;;;21.30;47.60;;;;;;5274590;28;20038;-72
2021/03/12 01:39:51;;;;;;;2.80;0.80;;;21.30;47.70;;;;;;5281172;28;20024;-72
2021/03/12 01:42:21;;;;;;;2.13;0.70;;;21.30;47.60;;;;;;5266744;28;20481;-72
2021/03/12 01:44:52;;;;;;;2.10;0.95;;;21.20;47.50;;;;;;5272757;28;20112;-71
2021/03/12 01:47:22;;;;;;;1.92;0.77;;;21.20;47.50;;;;;;5287341;28;20504;-72
2021/03/12 01:49:53;;;;;;;2.60;0.82;;;21.30;47.60;;;;;;5280550;28;20024;-73
2021/03/12 01:52:23;;;;;;;3.65;0.93;;;21.20;47.20;;;;;;5282780;28;20169;-72
2021/03/12 01:54:54;;;;;;;3.08;0.82;;;21.20;47.10;;;;;;5285573;28;20035;-73
2021/03/12 01:57:24;;;;;;;3.08;0.85;;;21.20;47.10;;;;;;5266917;28;20036;-72
2021/03/12 01:59:55;;;;;;;7.55;1.00;;;21.20;47.40;;;;;;5266479;28;20039;-72
2021/03/12 02:02:25;;;;;;;5.65;1.10;;;21.20;47.30;;;;;;5249048;28;20036;-72
2021/03/12 02:04:56;;;;;;;10.25;0.80;;;21.20;47.20;;;;;;5264753;28;20045;-72
2021/03/12 02:07:27;;;;;;;7.38;1.25;;;21.20;47.60;;;;;;5270567;28;20027;-72
2021/03/12 02:09:57;;;;;;;3.10;1.15;;;21.20;47.50;;;;;;5268074;28;20023;-72
2021/03/12 02:12:52;;;;;;;6.28;0.82;;;21.20;47.60;;;;;;5287377;28;20051;-71
2021/03/12 02:15:34;;;;;;;12.77;1.00;;;21.20;47.60;;;;;;5234786;28;20024;-72
2021/03/12 02:18:19;;;;;;;2.78;0.70;;;21.20;47.40;;;;;;5262797;28;20024;-73
2021/03/12 02:20:54;;;;;;;5.05;1.10;;;21.20;47.40;;;;;;5280415;28;20107;-71
2021/03/12 02:23:52;;;;;;;5.32;1.25;;;21.20;47.30;;;;;;5270295;28;20464;-72
2021/03/12 02:26:34;;;;;;;9.18;1.23;;;21.10;47.10;;;;;;5270128;28;20024;-71
2021/03/12 02:29:05;;;;;;;5.32;1.02;;;21.10;47.20;;;;;;5276025;28;20084;-71
2021/03/12 02:31:36;;;;;;;5.38;1.13;;;21.10;47.10;;;;;;5252658;28;20032;-71
2021/03/12 02:34:08;;;;;;;6.70;1.20;;;21.10;47.30;;;;;;5260665;28;20081;-72
2021/03/12 02:36:40;;;;;;;4.68;0.95;;;21.10;47.10;;;;;;5265899;28;20028;-71
2021/03/12 02:39:16;;;;;;;11.68;1.20;;;21.10;47.20;;;;;;5253778;28;20020;-71
2021/03/12 02:41:47;;;;;;;3.78;0.93;;;21.10;47.20;;;;;;5266687;28;20156;-73
2021/03/12 02:44:18;;;;;;;9.32;1.08;;;21.00;47.00;;;;;;5276558;28;20439;-73
2021/03/12 02:46:48;;;;;;;5.13;1.10;;;21.10;47.10;;;;;;5286234;28;20032;-71
2021/03/12 02:49:19;;;;;;;4.45;1.15;;;21.10;47.10;;;;;;5269342;28;20410;-72
2021/03/12 02:51:49;;;;;;;4.72;1.20;;;21.10;47.10;;;;;;5269030;28;20023;-72
2021/03/12 02:54:20;;;;;;;4.90;1.20;;;21.10;46.80;;;;;;5248757;28;20115;-72
2021/03/12 02:56:51;;;;;;;6.28;1.23;;;21.00;47.00;;;;;;5265679;28;20020;-72
2021/03/12 02:59:21;;;;;;;4.97;1.30;;;21.00;47.00;;;;;;5257249;28;20565;-72
2021/03/12 03:01:52;;;;;;;4.63;1.27;;;21.00;47.00;;;;;;5248047;28;20397;-72
2021/03/12 03:04:22;;;;;;;5.43;1.20;;;21.00;46.90;;;;;;5277170;28;20028;-72
2021/03/12 03:06:53;;;;;;;4.30;1.20;;;21.00;46.70;;;;;;5248467;28;20024;-71
2021/03/12 03:09:23;;;;;;;5.60;1.42;;;21.00;46.90;;;;;;5273110;28;20099;-72
2021/03/12 03:11:54;;;;;;;6.85;1.60;;;21.00;46.80;;;;;;5265311;28;20082;-72
2021/03/12 03:14:26;;;;;;;3.40;1.20;;;21.00;47.00;;;;;;5285252;28;20035;-72
2021/03/12 03:16:59;;;;;;;5.35;1.60;;;21.00;46.90;;;;;;5252373;28;20066;-72
2021/03/12 03:19:31;;;;;;;3.40;1.00;;;21.00;46.60;;;;;;5248211;28;20115;-71
2021/03/12 03:22:01;;;;;;;6.25;1.20;;;21.00;46.90;;;;;;5281013;28;20034;-72
2021/03/12 03:24:32;;;;;;;4.93;1.27;;;21.00;47.00;;;;;;5249240;28;20119;-71
2021/03/12 03:27:02;;;;;;;5.07;1.38;;;21.00;47.00;;;;;;5265559;28;20020;-72
2021/03/12 03:29:33;;;;;;;6.13;1.13;;;21.00;47.00;;;;;;5267392;28;20056;-72
2021/03/12 03:32:04;;;;;;;7.40;1.63;;;21.00;46.60;;;;;;5251795;28;20100;-72
2021/03/12 03:34:34;;;;;;;5.55;1.55;;;21.00;46.70;;;;;;5269093;28;20027;-71
2021/03/12 03:37:05;;;;;;;3.50;1.25;;;21.00;46.30;;;;;;5254398;28;20081;-73
2021/03/12 03:39:35;;;;;;;12.02;1.60;;;21.10;46.60;;;;;;5267050;28;20103;-71
2021/03/12 03:42:06;;;;;;;5.85;1.58;;;21.00;46.60;;;;;;5270795;28;20036;-72
2021/03/12 03:44:37;;;;;;;4.82;1.33;;;21.00;46.50;;;;;;5273392;28;20553;-72
2021/03/12 03:47:07;;;;;;;5.43;1.20;;;21.00;46.40;;;;;;5271200;28;20031;-72
2021/03/12 03:49:38;;;;;;;5.75;1.40;;;21.00;46.50;;;;;;5269457;28;20021;-74
2021/03/12 03:52:09;;;;;;;6.70;1.60;;;21.00;46.40;;;;;;5270405;28;20039;-74
2021/03/12 03:54:40;;;;;;;6.70;1.75;;;21.00;46.40;;;;;;5269175;28;20043;-75
2021/03/12 03:57:11;;;;;;;6.85;1.77;;;21.00;46.60;;;;;;5269128;28;20074;-74
2021/03/12 03:59:41;;;;;;;5.60;1.70;;;21.00;46.30;;;;;;5251825;28;20040;-73
2021/03/12 04:02:14;;;;;;;6.57;1.45;;;21.00;46.40;;;;;;5268427;28;20043;-74
2021/03/12 04:04:46;;;;;;;4.40;1.35;;;21.00;46.50;;;;;;5269399;28;20020;-74
2021/03/12 04:07:18;;;;;;;6.95;1.70;;;21.00;46.40;;;;;;5268153;28;20107;-74
2021/03/12 04:09:49;;;;;;;5.35;1.58;;;21.00;46.30;;;;;;5252077;28;20624;-74
2021/03/12 04:12:20;;;;;;;5.15;1.40;;;21.00;46.20;;;;;;5285532;28;20032;-74
2021/03/12 04:14:50;;;;;;;6.85;1.42;;;21.00;46.20;;;;;;5255233;28;20425;-75
2021/03/12 04:17:21;;;;;;;5.32;1.60;;;21.00;46.30;;;;;;5252327;28;20070;-74
2021/03/12 04:19:51;;;;;;;6.93;1.63;;;21.00;46.10;;;;;;5268869;28;20467;-73
2021/03/12 04:22:22;;;;;;;7.57;1.70;;;21.00;46.10;;;;;;5258324;28;20027;-73
2021/03/12 04:24:52;;;;;;;7.35;1.50;;;21.00;46.20;;;;;;5272171;28;20024;-72
2021/03/12 04:27:23;;;;;;;5.72;1.50;;;21.00;46.20;;;;;;5271127;28;20085;-74
2021/03/12 04:29:53;;;;;;;11.30;1.80;;;21.00;46.20;;;;;;5289139;28;20031;-74
2021/03/12 04:32:24;;;;;;;6.65;1.60;;;21.00;46.10;;;;;;5287803;28;20463;-74
2021/03/12 04:34:54;;;;;;;5.93;1.60;;;20.90;46.20;;;;;;5272013;28;20051;-75
2021/03/12 04:37:25;;;;;;;8.10;2.17;;;20.90;46.10;;;;;;5251684;28;20031;-74
2021/03/12 04:39:55;;;;;;;7.22;1.60;;;20.90;46.00;;;;;;5267828;28;20044;-74
2021/03/12 04:42:26;;;;;;;4.88;1.88;;;20.90;46.00;;;;;;5287539;28;20038;-74
2021/03/12 04:44:56;;;;;;;8.00;1.65;;;20.90;46.00;;;;;;5268496;28;20036;-74
2021/03/12 04:47:27;;;;;;;5.93;2.00;;;20.90;46.10;;;;;;5288272;28;20039;-75
2021/03/12 04:49:57;;;;;;;6.45;1.83;;;20.90;46.00;;;;;;5250243;28;20016;-73
2021/03/12 04:52:28;;;;;;;8.57;1.70;;;20.90;45.90;;;;;;5250885;28;20047;-75
2021/03/12 04:54:59;;;;;;;5.78;1.50;;;20.90;46.00;;;;;;5273166;28;20474;-73
2021/03/12 04:57:29;;;;;;;5.90;1.55;;;20.90;45.90;;;;;;5267649;28;20028;-73
2021/03/12 05:00:00;;;;;;;6.53;1.73;;;20.90;46.00;;;;;;5276147;28;20034;-75
2021/03/12 05:02:30;;;;;;;4.95;1.70;;;20.90;45.90;;;;;;5270065;28;20114;-75
2021/03/12 05:05:07;;;;;;;4.88;1.40;;;20.90;46.00;;;;;;5267316;28;20111;-74
2021/03/12 05:07:38;;;;;;;5.93;1.70;;;20.90;45.90;;;;;;5257897;28;20069;-75
2021/03/12 05:10:09;;;;;;;9.70;2.13;;;20.90;45.70;;;;;;5271347;28;20032;-74
2021/03/12 05:12:39;;;;;;;7.38;1.83;;;20.90;45.70;;;;;;5253314;28;20074;-73
2021/03/12 05:15:11;;;;;;;4.28;1.38;;;20.90;45.60;;;;;;5273047;28;20081;-73
2021/03/12 05:17:41;;;;;;;8.15;1.70;;;20.90;45.60;;;;;;5269821;28;20091;-73
2021/03/12 05:20:12;;;;;;;7.65;1.92;;;20.90;45.40;;;;;;5250569;28;20464;-74
2021/03/12 05:22:42;;;;;;;4.68;1.52;;;20.90;45.30;;;;;;5263269;28;20035;-74
2021/03/12 05:25:13;;;;;;;5.47;1.70;;;20.90;45.90;;;;;;5285756;28;20562;-74
2021/03/12 05:27:43;;;;;;;6.63;1.67;;;20.80;45.30;;;;;;5288893;28;20023;-73
2021/03/12 05:30:14;;;;;;;6.20;1.77;;;20.90;45.30;;;;;;5265813;28;20012;-75
2021/03/12 05:32:44;;;;;;;4.70;1.48;;;20.90;45.40;;;;;;5288213;28;20031;-74
2021/03/12 05:35:15;;;;;;;4.10;1.63;;;20.90;45.30;;;;;;5253641;28;20494;-74
2021/03/12 05:37:45;;;;;;;6.53;1.95;;;20.90;45.20;;;;;;5269516;28;20073;-74
2021/03/12 05:40:16;;;;;;;8.20;1.95;;;20.90;45.10;;;;;;5254011;28;20339;-74
2021/03/12 05:42:49;;;;;;;6.07;1.50;;;20.90;45.10;;;;;;5266699;28;20433;-74
2021/03/12 05:45:20;;;;;;;6.25;1.67;;;20.90;45.10;;;;;;5249766;28;20051;-74
2021/03/12 05:47:50;;;;;;;7.82;1.75;;;20.90;45.00;;;;;;5276491;28;20020;-74
2021/03/12 05:50:21;;;;;;;8.18;1.73;;;20.90;45.00;;;;;;5249774;28;20020;-75
2021/03/12 05:52:51;;;;;;;7.78;2.05;;;20.80;45.10;;;;;;5287098;28;20076;-74
2021/03/12 05:55:22;;;;;;;5.72;1.80;;;20.80;44.90;;;;;;5269616;28;20103;-74
2021/03/12 05:57:52;;;;;;;7.97;1.63;;;20.90;45.20;;;;;;5275268;28;20071;-74
2021/03/12 06:00:23;;;;;;;5.65;1.60;;;20.90;44.90;;;;;;5265541;28;20119;-75
2021/03/12 06:02:54;;;;;;;6.78;1.70;;;20.90;44.80;;;;;;5271098;28;20032;-73
2021/03/12 06:05:24;;;;;;;5.88;1.83;;;20.90;44.80;;;;;;5253610;28;20072;-74
2021/03/12 06:07:55;;;;;;;5.07;1.63;;;20.80;45.40;;;;;;5256806;28;20024;-74
2021/03/12 06:10:25;;;;;;;6.72;1.70;;;20.80;44.80;;;;;;5257152;28;20115;-73
2021/03/12 06:12:56;;;;;;;4.93;1.65;;;20.90;44.80;;;;;;5257788;28;20130;-74
2021/03/12 06:15:37;;;;;;;6.35;1.77;;;20.90;44.80;;;;;;5282913;28;20043;-74
2021/03/12 06:18:14;;;;;;;6.60;1.80;;;20.80;44.80;;;;;;5265061;28;20047;-74
2021/03/12 06:20:45;;;;;;;7.97;2.08;;;20.80;44.90;;;;;;5249309;28;20038;-74
2021/03/12 06:23:36;;;;;;;8.95;1.58;;;20.80;45.00;;;;;;5253001;28;20024;-73
2021/03/12 06:26:07;;;;;;;8.57;1.60;;;20.90;45.30;;;;;;5278478;28;20186;-74
2021/03/12 06:28:37;;;;;;;6.30;1.88;;;20.80;45.10;;;;;;5246598;28;20479;-75
2021/03/12 06:31:27;;;;;;;6.60;1.75;;;20.80;45.10;;;;;;5251431;28;20039;-71
2021/03/12 06:34:10;;;;;;;12.73;1.80;;;20.90;45.40;;;;;;5251025;28;20107;-75
2021/03/12 06:36:40;;;;;;;9.25;1.90;;;20.90;45.30;;;;;;5267027;28;20028;-75
2021/03/12 06:39:11;;;;;;;86.63;5.15;;;20.90;45.40;;;;;;5275738;28;20073;-72
2021/03/12 06:41:43;;;;;;;123.35;8.27;;;20.90;45.20;;;;;;5268637;28;20027;-73
2021/03/12 06:44:34;;;;;;;81.05;6.78;;;20.90;45.20;;;;;;5287212;28;20035;-72
2021/03/12 06:47:05;;;;;;;50.03;6.15;;;20.80;45.30;;;;;;5291779;28;20070;-75
2021/03/12 06:49:54;;;;;;;54.10;5.82;;;20.80;44.90;;;;;;5293704;28;20015;-71
2021/03/12 06:52:34;;;;;;;63.35;6.07;;;20.80;45.20;;;;;;5266593;28;20020;-74
2021/03/12 06:55:06;;;;;;;32.08;4.65;;;20.80;45.10;;;;;;5280967;28;20107;-72
2021/03/12 06:57:36;;;;;;;36.78;4.45;;;20.80;44.60;;;;;;5273443;28;20020;-75
2021/03/12 07:00:08;;;;;;;25.77;3.80;;;20.80;44.40;;;;;;5218588;28;20170;-72
2021/03/12 07:02:38;;;;;;;34.40;4.28;;;20.80;44.40;;;;;;5214566;28;20043;-73
2021/03/12 07:05:09;;;;;;;25.38;3.97;;;20.80;44.40;;;;;;5260077;27;20104;-73
2021/03/12 07:07:41;;;;;;;23.58;3.97;;;20.80;44.50;;;;;;5249649;28;20457;-74
2021/03/12 07:10:12;;;;;;;25.33;4.32;;;20.80;44.40;;;;;;5249566;27;20035;-72
2021/03/12 07:12:52;;;;;;;20.50;3.70;;;20.80;44.50;;;;;;5259893;28;20516;-74
2021/03/12 07:15:22;;;;;;;21.63;4.30;;;20.80;44.50;;;;;;5273000;28;20031;-73
2021/03/12 07:17:53;;;;;;;18.70;3.38;;;20.80;44.50;;;;;;5261511;28;20032;-71
2021/03/12 07:20:24;;;;;;;23.65;3.75;;;20.80;44.50;;;;;;5281959;27;20020;-73
2021/03/12 07:22:54;;;;;;;18.55;3.83;;;20.80;45.00;;;;;;5256094;28;20600;-75
2021/03/12 07:25:25;;;;;;;19.77;3.60;;;20.80;47.30;;;;;;5266635;28;20478;-73
2021/03/12 07:27:56;;;;;;;13.40;3.65;;;20.90;49.60;;;;;;5284908;28;20032;-73
2021/03/12 07:30:26;;;;;;;24.23;3.78;;;20.90;49.80;;;;;;5265861;28;20111;-72
2021/03/12 07:32:57;;;;;;;17.80;3.42;;;21.00;50.20;;;;;;5281001;27;20543;-73
2021/03/12 07:35:27;;;;;;;23.02;3.97;;;21.00;50.10;;;;;;5274485;28;20028;-73
2021/03/12 07:37:59;;;;;;;23.35;3.85;;;21.00;51.50;;;;;;5239233;28;20123;-74
2021/03/12 07:40:30;;;;;;;22.63;4.03;;;21.00;53.50;;;;;;5262703;28;20113;-73
2021/03/12 07:43:00;;;;;;;31.92;4.32;;;21.10;55.70;;;;;;5283734;27;20024;-73
2021/03/12 07:45:31;;;;;;;19.40;4.18;;;21.10;56.10;;;;;;5289432;27;20035;-73
2021/03/12 07:48:02;;;;;;;21.88;3.60;;;21.10;55.70;;;;;;5282116;27;20077;-71
2021/03/12 07:50:37;;;;;;;20.48;3.53;;;21.20;54.80;;;;;;5270619;27;20018;-73
2021/03/12 07:53:08;;;;;;;14.98;3.10;;;21.10;54.00;;;;;;5271083;27;20509;-72
2021/03/12 07:55:45;;;;;;;14.73;3.03;;;21.20;53.40;;;;;;5283957;27;20073;-73
2021/03/12 07:58:55;;;;;;;15.75;3.35;;;21.20;52.70;;;;;;5288295;27;20024;-70
2021/03/12 08:01:26;;;;;;;13.43;3.45;;;21.20;52.40;;;;;;5287230;27;20035;-73
2021/03/12 08:03:56;;;;;;;13.82;2.47;;;21.20;51.80;;;;;;5270842;28;20402;-74
2021/03/12 08:06:27;;;;;;;10.25;2.90;;;21.20;51.60;;;;;;5288980;27;20024;-71
2021/03/12 08:08:58;;;;;;;15.02;3.10;;;21.20;51.50;;;;;;5283557;27;20019;-73
2021/03/12 08:11:38;;;;;;;8.25;3.00;;;21.20;51.10;;;;;;5303168;27;20493;-73
2021/03/12 08:14:09;;;;;;;9.90;3.00;;;21.10;51.00;;;;;;5296917;27;20034;-71
2021/03/12 08:17:04;;;;;;;9.75;2.40;;;21.20;50.80;;;;;;5311770;27;20088;-74
2021/03/12 08:19:36;;;;;;;10.10;3.00;;;21.10;50.70;;;;;;5293720;27;20481;-78
2021/03/12 08:22:28;;;;;;;11.15;2.60;;;21.10;50.50;;;;;;5278068;28;20118;-75
2021/03/12 08:24:59;;;;;;;9.73;3.15;;;21.20;50.30;;;;;;5286464;27;20046;-71
2021/03/12 08:27:48;;;;;;;8.60;2.60;;;21.10;50.30;;;;;;5293775;27;20027;-72
2021/03/12 08:30:25;;;;;;;10.10;2.58;;;21.10;50.30;;;;;;5284176;27;20051;-72
2021/03/12 08:32:56;;;;;;;9.23;2.60;;;21.10;49.80;;;;;;5276346;27;20019;-75
2021/03/12 08:35:33;;;;;;;7.45;2.60;;;21.10;49.70;;;;;;5260411;27;20489;-75
2021/03/12 08:38:10;;;;;;;11.63;3.05;;;21.10;49.70;;;;;;5291400;27;20023;-70
2021/03/12 08:40:42;;;;;;;8.82;2.83;;;21.10;49.50;;;;;;5280170;27;20114;-72
2021/03/12 08:43:14;;;;;;;10.88;2.60;;;21.20;49.60;;;;;;5294917;27;20051;-75
2021/03/12 08:45:45;;;;;;;6.15;2.30;;;21.10;49.30;;;;;;5278369;28;20371;-72
2021/03/12 08:48:19;;;;;;;6.45;2.10;;;21.10;49.40;;;;;;5295665;27;20025;-74
2021/03/12 08:50:54;;;;;;;7.43;2.42;;;21.10;49.20;;;;;;5266168;28;20442;-73
2021/03/12 08:53:26;;;;;;;10.02;2.47;;;21.10;49.00;;;;;;5271168;27;20493;-74
2021/03/12 08:55:57;;;;;;;9.63;2.75;;;21.10;48.80;;;;;;5269735;28;20036;-72
2021/03/12 08:58:29;;;;;;;12.70;2.55;;;21.10;48.90;;;;;;5286096;27;20106;-73
2021/03/12 09:01:07;;;;;;;6.75;2.38;;;21.10;48.90;;;;;;5285247;27;20645;-74
2021/03/12 09:03:38;;;;;;;17.83;2.40;;;21.10;48.80;;;;;;5252929;28;20038;-72
2021/03/12 09:06:10;;;;;;;14.30;2.45;;;21.20;49.00;;;;;;5254277;28;20422;-74
2021/03/12 09:08:41;;;;;;;15.02;2.40;;;21.10;49.60;;;;;;5212664;27;20497;-71
2021/03/12 09:11:23;;;;;;;14.75;2.60;;;21.10;49.60;;;;;;5252990;27;20413;-72
2021/03/12 09:13:54;;;;;;;9.63;2.25;;;21.10;49.50;;;;;;5286363;27;20020;-72
2021/03/12 09:16:25;;;;;;;29.15;4.47;;;21.10;49.80;;;;;;5256335;28;20047;-73
2021/03/12 09:18:56;;;;;;;24.45;4.43;;;21.20;53.90;;;;;;5254529;28;20030;-74
2021/03/12 09:21:27;;;;;;;23.13;3.72;;;21.20;54.80;;;;;;5269277;28;20031;-73
2021/03/12 09:23:59;;;;;;;27.73;3.63;;;21.20;53.40;;;;;;5275226;28;20047;-72
2021/03/12 09:26:31;;;;;;;22.67;3.90;;;21.30;53.40;;;;;;5273548;27;20469;-73
2021/03/12 09:29:04;;;;;;;21.48;3.40;;;21.40;53.40;;;;;;5267291;27;20042;-77
2021/03/12 09:31:36;;;;;;;50.25;8.50;;;21.30;53.00;;;;;;5295319;27;20031;-77
2021/03/12 09:34:09;;;;;;;30.15;6.38;;;21.30;53.20;;;;;;5260097;28;20055;-78
2021/03/12 09:36:42;;;;;;;29.33;6.60;;;21.30;53.30;;;;;;5253296;28;20027;-79
2021/03/12 09:39:18;;;;;;;29.02;5.43;;;21.30;53.40;;;;;;5285023;27;20023;-78
2021/03/12 09:41:53;;;;;;;32.20;5.78;;;21.30;53.20;;;;;;5263864;28;20529;-76
2021/03/12 09:44:24;;;;;;;30.45;5.63;;;21.30;53.10;;;;;;5276604;28;20163;-77
2021/03/12 09:46:56;;;;;;;28.50;5.20;;;21.20;52.70;;;;;;5245780;28;20119;-77
2021/03/12 09:49:33;;;;;;;24.30;5.35;;;21.20;52.90;;;;;;5265435;28;20061;-77
2021/03/12 09:52:07;;;;;;;20.25;4.82;;;21.10;52.70;;;;;;5257721;28;20024;-77
2021/03/12 09:54:38;;;;;;;21.33;4.85;;;21.10;52.50;;;;;;5293771;27;20020;-75
2021/03/12 09:57:10;;;;;;;24.33;5.15;;;21.20;52.30;;;;;;5267703;28;20484;-77
2021/03/12 09:59:41;;;;;;;15.52;4.40;;;21.20;52.20;;;;;;5284759;28;20018;-76
2021/03/12 10:02:11;;;;;;;16.90;4.32;;;21.20;52.00;;;;;;5286854;27;20400;-77
2021/03/12 10:04:43;;;;;;;23.27;4.93;;;21.10;51.80;;;;;;5301023;27;20023;-76
2021/03/12 10:07:14;;;;;;;28.95;4.85;;;21.10;51.70;;;;;;5307318;27;20023;-76
2021/03/12 10:09:46;;;;;;;16.50;4.43;;;21.10;51.70;;;;;;5291131;27;20025;-75
2021/03/12 10:12:21;;;;;;;16.13;5.03;;;21.10;51.60;;;;;;5304560;27;20550;-77
2021/03/12 10:15:07;;;;;;;16.13;4.53;;;21.10;51.50;;;;;;5274490;27;20034;-76
2021/03/12 10:17:39;;;;;;;16.50;5.13;;;21.10;51.30;;;;;;5240550;28;20561;-76
2021/03/12 10:20:15;;;;;;;11.52;4.20;;;21.10;51.20;;;;;;5244063;28;20070;-77
2021/03/12 10:22:50;;;;;;;16.48;4.40;;;21.10;51.10;;;;;;5274112;27;20511;-77
2021/03/12 10:25:29;;;;;;;11.77;4.65;;;21.10;51.20;;;;;;5287373;27;20030;-77
2021/03/12 10:28:05;;;;;;;18.33;4.32;;;21.00;51.00;;;;;;5275689;28;20021;-77
2021/03/12 10:30:49;;;;;;;17.75;5.10;;;21.00;51.00;;;;;;5257047;28;20110;-77
2021/03/12 10:33:21;;;;;;;12.15;4.72;;;21.00;50.80;;;;;;5252863;28;20043;-76
2021/03/12 10:35:53;;;;;;;16.85;4.80;;;21.00;50.90;;;;;;5289933;28;20078;-77
2021/03/12 10:38:25;;;;;;;13.40;5.07;;;21.10;50.60;;;;;;5306559;27;20513;-76
2021/03/12 10:41:00;;;;;;;12.70;4.90;;;21.10;50.50;;;;;;5305092;27;20027;-76
2021/03/12 10:43:32;;;;;;;9.88;4.10;;;21.10;50.60;;;;;;5267148;28;20574;-78
2021/03/12 10:46:07;;;;;;;11.32;4.43;;;21.10;50.60;;;;;;5243355;28;20410;-77
2021/03/12 10:48:39;;;;;;;10.05;4.68;;;21.00;50.50;;;;;;5243765;28;20519;-77
2021/03/12 10:51:10;;;;;;;10.13;4.32;;;21.00;50.50;;;;;;5246988;28;20150;-76
2021/03/12 10:53:53;;;;;;;10.45;4.43;;;21.00;50.40;;;;;;5260096;28;20028;-76
2021/03/12 10:56:25;;;;;;;10.35;3.92;;;21.00;50.40;;;;;;5252215;28;20092;-77
2021/03/12 10:58:56;;;;;;;11.80;4.90;;;21.10;50.30;;;;;;5227962;28;20032;-77
2021/03/12 11:01:29;;;;;;;10.15;4.22;;;21.00;50.40;;;;;;5259865;28;20393;-78
2021/03/12 11:04:03;;;;;;;11.25;4.50;;;21.00;50.30;;;;;;5263745;28;20089;-78
2021/03/12 11:06:38;;;;;;;9.15;4.57;;;21.00;50.30;;;;;;5236654;28;20521;-77
2021/03/12 11:09:13;;;;;;;9.48;4.13;;;21.00;50.20;;;;;;5236093;28;20096;-78
2021/03/12 11:11:44;;;;;;;11.80;5.03;;;21.00;50.70;;;;;;5255787;28;20031;-78
2021/03/12 11:14:15;;;;;;;12.25;4.30;;;21.00;50.20;;;;;;5267348;28;20039;-79
2021/03/12 11:16:47;;;;;;;11.23;4.40;;;21.00;50.10;;;;;;5225412;28;20036;-78
2021/03/12 11:19:17;;;;;;;7.80;4.20;;;21.00;50.10;;;;;;5252895;28;20071;-79
2021/03/12 11:21:48;;;;;;;9.43;4.38;;;21.00;50.10;;;;;;5279736;28;20059;-80
2021/03/12 11:24:18;;;;;;;7.85;4.05;;;21.00;50.40;;;;;;5271729;28;20035;-79
2021/03/12 11:26:49;;;;;;;7.82;3.53;;;21.00;49.90;;;;;;5267477;28;20028;-79
2021/03/12 11:29:20;;;;;;;6.30;3.28;;;21.00;49.80;;;;;;5253127;28;21433;-79
2021/03/12 11:31:50;;;;;;;6.40;3.05;;;21.00;50.00;;;;;;5231371;28;20063;-76
2021/03/12 11:34:21;;;;;;;6.40;3.30;;;21.00;50.00;;;;;;5239631;28;20122;-79
2021/03/12 11:36:52;;;;;;;6.50;3.40;;;21.00;49.90;;;;;;5230936;28;20163;-78
2021/03/12 11:39:22;;;;;;;6.97;3.47;;;21.00;50.00;;;;;;5227211;28;20036;-78
2021/03/12 11:41:53;;;;;;;7.57;3.53;;;21.00;49.90;;;;;;5225132;28;20028;-79
2021/03/12 11:44:23;;;;;;;7.80;3.63;;;21.00;49.90;;;;;;5227676;28;20036;-76
2021/03/12 11:46:54;;;;;;;9.73;3.80;;;21.10;50.10;;;;;;5264457;28;20040;-77
2021/03/12 11:49:25;;;;;;;7.50;3.67;;;21.00;50.00;;;;;;5263015;28;20035;-79
2021/03/12 11:51:56;;;;;;;7.43;3.50;;;21.00;50.10;;;;;;5220251;28;20487;-80
2021/03/12 11:54:26;;;;;;;6.90;3.65;;;21.00;50.10;;;;;;5259876;28;20028;-78
2021/03/12 11:56:57;;;;;;;8.85;3.38;;;21.00;50.10;;;;;;5231535;28;20034;-77
2021/03/12 11:59:28;;;;;;;5.38;3.13;;;21.10;50.10;;;;;;5247041;28;20040;-77
2021/03/12 12:02:00;;;;;;;11.10;3.15;;;21.10;50.20;;;;;;5280102;28;20039;-76
2021/03/12 12:04:30;;;;;;;11.32;2.63;;;21.10;50.50;;;;;;5240164;28;20016;-79
2021/03/12 12:07:01;;;;;;;8.88;3.45;;;21.00;50.70;;;;;;5257683;28;20020;-80
2021/03/12 12:09:32;;;;;;;29.77;4.47;;;21.10;51.00;;;;;;5234874;28;20023;-79
2021/03/12 12:12:03;;;;;;;20.33;3.95;;;21.10;51.40;;;;;;5250371;28;20379;-79
2021/03/12 12:14:34;;;;;;;21.75;4.63;;;21.10;51.80;;;;;;5248010;28;20012;-76
2021/03/12 12:17:04;;;;;;;27.70;3.88;;;21.10;51.90;;;;;;5237230;28;20020;-76
2021/03/12 12:19:35;;;;;;;15.52;3.58;;;21.00;52.10;;;;;;5280533;28;20024;-76
2021/03/12 12:22:07;;;;;;;12.00;3.30;;;21.00;52.00;;;;;;5256149;28;20089;-76
2021/03/12 12:24:38;;;;;;;16.52;3.53;;;21.00;52.40;;;;;;5257977;28;20024;-76
2021/03/12 12:27:09;;;;;;;12.95;3.13;;;21.10;52.50;;;;;;5231487;28;20024;-74
2021/03/12 12:29:39;;;;;;;10.20;2.60;;;21.10;52.60;;;;;;5251878;28;20077;-75
2021/03/12 12:32:10;;;;;;;10.65;3.00;;;21.10;52.90;;;;;;5228734;28;20032;-77
2021/03/12 12:34:41;;;;;;;7.95;2.70;;;21.10;53.10;;;;;;5260769;28;20366;-77
2021/03/12 12:37:11;;;;;;;13.43;2.97;;;21.10;53.50;;;;;;5280275;28;20028;-76
2021/03/12 12:39:42;;;;;;;7.97;2.67;;;21.10;53.50;;;;;;5248469;28;20028;-77
2021/03/12 12:42:12;;;;;;;7.32;2.70;;;21.00;53.60;;;;;;5252070;28;20107;-76
2021/03/12 12:44:43;;;;;;;7.35;2.65;;;21.10;54.00;;;;;;5275739;28;20035;-74
2021/03/12 12:47:13;;;;;;;8.10;2.58;;;21.10;54.10;;;;;;5254488;28;20039;-77
2021/03/12 12:49:44;;;;;;;12.75;2.80;;;21.10;54.30;;;;;;5263417;28;20020;-75
2021/03/12 12:52:14;;;;;;;8.38;2.60;;;21.10;54.40;;;;;;5272969;28;20033;-76
2021/03/12 12:54:45;;;;;;;6.75;2.50;;;21.10;54.40;;;;;;5282656;27;20393;-76
2021/03/12 12:57:17;;;;;;;9.85;3.08;;;21.10;54.70;;;;;;5279022;28;20035;-76
2021/03/12 12:59:48;;;;;;;8.63;2.70;;;21.10;54.80;;;;;;5247724;28;20020;-77
2021/03/12 13:02:19;;;;;;;8.38;2.63;;;21.10;55.10;;;;;;5265496;28;20031;-74
2021/03/12 13:04:49;;;;;;;14.15;2.58;;;21.10;55.30;;;;;;5288417;28;20136;-75
2021/03/12 13:07:20;;;;;;;9.13;3.05;;;21.10;55.40;;;;;;5286494;28;20114;-75
2021/03/12 13:09:50;;;;;;;6.45;2.70;;;21.10;55.60;;;;;;5287033;28;20513;-76